Airfield :
LOGIN :

Register | Disclaimer

   EN    FR    IT 

 










Legend :    VFR   Marginal VFR   IFR   Intensive IFR   Very Intensive IFR
Visi :
Ceiling :
>= 8 km
>= 3000ft
5 to 8 km
1000 to 3000 ft
1500m to 5 km
500 to 1000 ft
800 to 1500m
200 to 500 ft
< 800m
< 200 ft
Symbols :   Thunderstorms  Fog  Heavy snow  Heavy precipitations  Wind > 20 kt
SIGMETs :     Misc.  Thunderstorms  Icing  Turbulence  Mountain Waves  Volcanic Ashes






- Airport Elevation : 84 ft


LFBC - Cazaux

CURRENT METAR :
  • 040030Z AUTO 26004KT 220V290 9999 -TSRA ///CB 17/16 Q1021 TEMPO SHRA BECMG 35012KT

EXPIRED METARs :
  • 040000Z AUTO VRB02KT 9999 -RA ///CB 17/16 Q1020 TEMPO SHRA BECMG 35012KT
  • 031530Z AUTO 31013KT CAVOK 24/15 Q1019 NOSIG
  • 032330Z AUTO 26005KT 230V300 9999 //////CB 17/16 Q1021 TEMPO SHRA
  • 032300Z AUTO 36004KT 310V020 9999 ///TCU 17/16 Q1020 TEMPO VRB15G25KT 4000 TSRA SCT050CB
  • 032230Z AUTO 34005KT 9999 ///CB 17/15 Q1020 TEMPO VRB15G25KT 4000 TSRA
  • 032200Z AUTO 03004KT 9999 //////CB 17/15 Q1020 TEMPO VRB15G25KT 4000 TSRA

TAF TAF LFBC
Valid from the 03 at 21:00 until the 04 at 21:00 UTC


032000Z 0321/0421 35012KT CAVOK
TEMPO 0321/0403 SHRA SCT050TCU
PROB40
TEMPO 0321/0324 VRB15G25KT 4000 TSRA SCT050CB



MET'MAP, your aeronautical weather chart ! - Copyright ORBIFLY December 2007 - Disclaimer

ORBIFLY MET'MAP TEAM :

Programming & Development : Alexandra Zaïnal
Original concept : Baudouin d'Aumeries
Technical & hardware support : Manuel Goepfert
Assistance : Marc-Olivier Méhu




SOURCES & CREDITS :

   NOAA